WXM80 ListenWXM80 Stop

You find our weather info also at:

UK Metoffice

WeatherCloud

Weather Underground

Northeastern Weather Network

AWEKAS

Citizen Weather Observer Program (CWOP)

HAMweather, WeatherForYou, PWS Weather


Weather Underground History page Text

Daily Summary for March 23, 2016 Units:  English    Metric   Both
« Previous Day
Next Day »
Daily Weekly Monthly Yearly Custom
  High: Low: Average:
Temperature: 68.8 °F 45.6 °F 56.8 °F
Dew Point: 42.7 °F 35.7 °F 39.1 °F
Humidity: 78 % 31 % 55 %
Wind Speed: 9.6 mph 0.0 mph 3.8 mph
Wind Gust: 16.1 mph - -
Wind:- - SW
Pressure: 30.05 in 29.89 in -
Precipitation: 0.00 in    
Historical Graphs
 
 
Tabular Data for March 23, 2016
Time Temperature Dew Point Pressure Wind Wind Speed Wind Gust Humidity Rainfall Rate (Hourly)
00:05 48.6 °F 35.7 °F 29.98 in SW 4.3 mph 12.0 mph 61 % 0.00 in
00:10 48.6 °F 35.7 °F 29.98 in SSE 6.9 mph 13.8 mph 61 % 0.00 in
00:15 48.5 °F 36.1 °F 29.98 in SSW 6.1 mph 15.0 mph 62 % 0.00 in
00:20 48.5 °F 36.5 °F 29.98 in South 6.8 mph 11.5 mph 63 % 0.00 in
00:25 48.4 °F 36.8 °F 29.98 in SSW 6.2 mph 11.5 mph 64 % 0.00 in
00:30 48.3 °F 37.1 °F 29.98 in SSW 8.2 mph 11.5 mph 65 % 0.00 in
00:35 48.2 °F 37.0 °F 29.97 in South 6.7 mph 14.0 mph 65 % 0.00 in
00:40 48.1 °F 37.3 °F 29.97 in South 7.4 mph 13.8 mph 66 % 0.00 in
00:45 48.0 °F 37.6 °F 29.97 in SSW 5.2 mph 10.4 mph 67 % 0.00 in
00:51 47.8 °F 37.4 °F 29.97 in South 4.3 mph 13.8 mph 67 % 0.00 in
00:56 47.7 °F 37.7 °F 29.96 in SW 8.0 mph 16.1 mph 68 % 0.00 in
01:01 47.6 °F 37.6 °F 29.96 in SSW 9.6 mph 15.0 mph 68 % 0.00 in
01:06 47.5 °F 37.8 °F 29.96 in South 5.4 mph 11.0 mph 69 % 0.00 in
01:11 47.3 °F 37.6 °F 29.96 in South 4.6 mph 10.0 mph 69 % 0.00 in
01:16 47.2 °F 37.9 °F 29.95 in SSE 5.0 mph 9.2 mph 70 % 0.00 in
01:21 47.1 °F 38.2 °F 29.95 in SSW 5.0 mph 8.1 mph 71 % 0.00 in
01:26 47.0 °F 38.1 °F 29.95 in SSW 4.3 mph 9.2 mph 71 % 0.00 in
01:31 46.9 °F 38.3 °F 29.95 in South 6.1 mph 11.5 mph 72 % 0.00 in
01:36 46.8 °F 38.6 °F 29.95 in WSW 5.5 mph 10.4 mph 73 % 0.00 in
01:42 46.7 °F 38.5 °F 29.96 in South 7.1 mph 10.4 mph 73 % 0.00 in
01:47 46.7 °F 38.9 °F 29.95 in South 7.8 mph 11.5 mph 74 % 0.00 in
01:52 46.6 °F 38.8 °F 29.95 in SSE 3.6 mph 8.1 mph 74 % 0.00 in
01:57 46.6 °F 38.8 °F 29.95 in SSW 4.8 mph 8.0 mph 74 % 0.00 in
02:02 46.5 °F 39.0 °F 29.95 in SW 2.1 mph 4.6 mph 75 % 0.00 in
02:07 46.4 °F 38.9 °F 29.95 in SSW 4.1 mph 11.5 mph 75 % 0.00 in
02:12 46.4 °F 38.9 °F 29.95 in SSW 4.3 mph 7.0 mph 75 % 0.00 in
02:17 46.3 °F 39.1 °F 29.95 in SSW 4.2 mph 8.1 mph 76 % 0.00 in
02:22 46.3 °F 39.1 °F 29.95 in South 3.6 mph 5.0 mph 76 % 0.00 in
02:33 46.1 °F 39.3 °F 29.94 in SSW 1.0 mph 5.8 mph 77 % 0.00 in
02:38 46.1 °F 39.3 °F 29.94 in SW 1.1 mph 3.5 mph 77 % 0.00 in
02:48 46.0 °F 39.2 °F 29.94 in SSW 3.5 mph 5.8 mph 77 % 0.00 in
02:53 45.9 °F 39.1 °F 29.94 in WSW 1.4 mph 5.0 mph 77 % 0.00 in
02:58 45.9 °F 39.1 °F 29.94 in WSW 2.9 mph 4.6 mph 77 % 0.00 in
03:03 45.8 °F 39.3 °F 29.95 in WSW 1.3 mph 3.5 mph 78 % 0.00 in
03:08 45.8 °F 39.3 °F 29.94 in SW 2.1 mph 4.0 mph 78 % 0.00 in
03:13 45.7 °F 39.2 °F 29.94 in SW 2.3 mph 4.0 mph 78 % 0.00 in
03:18 45.7 °F 39.2 °F 29.93 in SSW 2.7 mph 3.5 mph 78 % 0.00 in
03:24 45.7 °F 39.2 °F 29.93 in SW 1.5 mph 3.5 mph 78 % 0.00 in
03:29 45.6 °F 39.1 °F 29.93 in SW 2.4 mph 6.9 mph 78 % 0.00 in
03:34 45.6 °F 39.1 °F 29.92 in WSW 3.2 mph 8.1 mph 78 % 0.00 in
03:39 45.6 °F 39.1 °F 29.92 in WSW 1.5 mph 4.6 mph 78 % 0.00 in
03:44 45.7 °F 39.2 °F 29.92 in WSW 3.9 mph 7.0 mph 78 % 0.00 in
03:49 45.8 °F 39.0 °F 29.92 in SSW 2.3 mph 3.5 mph 77 % 0.00 in
03:54 45.9 °F 39.1 °F 29.92 in SSW 2.1 mph 5.8 mph 77 % 0.00 in
03:59 46.0 °F 39.2 °F 29.92 in SSW 3.5 mph 4.6 mph 77 % 0.00 in
04:04 46.1 °F 39.0 °F 29.92 in SW 2.1 mph 3.5 mph 76 % 0.00 in
04:09 46.3 °F 39.1 °F 29.91 in SW 4.5 mph 8.1 mph 76 % 0.00 in
04:15 46.4 °F 38.9 °F 29.91 in SSW 5.2 mph 7.0 mph 75 % 0.00 in
04:20 46.5 °F 39.0 °F 29.91 in WSW 3.4 mph 8.1 mph 75 % 0.00 in
04:25 46.7 °F 39.2 °F 29.90 in SSW 2.4 mph 8.1 mph 75 % 0.00 in
04:30 46.8 °F 38.9 °F 29.91 in SW 3.4 mph 7.0 mph 74 % 0.00 in
04:35 47.0 °F 39.1 °F 29.90 in SSW 6.2 mph 10.4 mph 74 % 0.00 in
04:40 47.1 °F 39.2 °F 29.90 in SW 4.9 mph 8.1 mph 74 % 0.00 in
04:45 47.3 °F 39.4 °F 29.90 in SSW 3.5 mph 6.9 mph 74 % 0.00 in
04:50 47.4 °F 39.5 °F 29.90 in SW 5.6 mph 11.5 mph 74 % 0.00 in
04:55 47.5 °F 39.6 °F 29.90 in SW 3.8 mph 6.9 mph 74 % 0.00 in
05:00 47.7 °F 39.8 °F 29.90 in SSW 6.6 mph 8.1 mph 74 % 0.00 in
05:06 47.8 °F 39.9 °F 29.90 in WSW 5.7 mph 7.0 mph 74 % 0.00 in
05:11 47.9 °F 40.0 °F 29.90 in SSW 4.3 mph 4.6 mph 74 % 0.00 in
05:16 48.0 °F 39.8 °F 29.89 in SSW 3.8 mph 8.1 mph 73 % 0.00 in
05:21 48.1 °F 39.9 °F 29.89 in SW 3.7 mph 8.0 mph 73 % 0.00 in
05:31 48.2 °F 39.9 °F 29.89 in SSW 6.8 mph 10.4 mph 73 % 0.00 in
05:36 48.2 °F 39.6 °F 29.90 in WSW 4.4 mph 10.4 mph 72 % 0.00 in
05:41 48.3 °F 39.7 °F 29.89 in WSW 4.0 mph 7.0 mph 72 % 0.00 in
05:46 48.4 °F 39.8 °F 29.89 in SW 3.0 mph 5.8 mph 72 % 0.00 in
05:51 48.4 °F 39.8 °F 29.90 in WSW 0.9 mph 4.0 mph 72 % 0.00 in
05:57 48.4 °F 39.8 °F 29.89 in SW 4.9 mph 6.9 mph 72 % 0.00 in
06:02 48.5 °F 39.9 °F 29.89 in SW 3.1 mph 5.8 mph 72 % 0.00 in
06:07 48.5 °F 39.9 °F 29.89 in SSW 4.7 mph 8.1 mph 72 % 0.00 in
06:12 48.5 °F 39.9 °F 29.89 in SW 5.9 mph 8.1 mph 72 % 0.00 in
06:17 48.5 °F 39.9 °F 29.89 in SW 5.5 mph 9.2 mph 72 % 0.00 in
06:22 48.5 °F 40.2 °F 29.89 in SW 6.6 mph 9.2 mph 73 % 0.00 in
06:27 48.4 °F 40.1 °F 29.90 in SSW 5.6 mph 8.1 mph 73 % 0.00 in
06:32 48.4 °F 40.1 °F 29.90 in WSW 2.7 mph 6.9 mph 73 % 0.00 in
06:37 48.4 °F 40.1 °F 29.90 in SW 5.0 mph 11.5 mph 73 % 0.00 in
06:42 48.5 °F 39.9 °F 29.90 in SW 5.5 mph 7.0 mph 72 % 0.00 in
06:48 48.5 °F 39.9 °F 29.90 in SSW 5.2 mph 9.2 mph 72 % 0.00 in
06:53 48.5 °F 39.9 °F 29.90 in SSW 6.0 mph 9.2 mph 72 % 0.00 in
06:58 48.5 °F 39.9 °F 29.90 in SW 3.2 mph 5.0 mph 72 % 0.00 in
07:03 48.6 °F 40.0 °F 29.90 in SW 5.9 mph 11.0 mph 72 % 0.00 in
07:08 48.7 °F 39.7 °F 29.90 in SW 4.5 mph 10.4 mph 71 % 0.00 in
07:13 48.8 °F 39.8 °F 29.90 in SW 7.3 mph 11.5 mph 71 % 0.00 in
07:18 48.9 °F 39.9 °F 29.91 in SW 5.0 mph 8.1 mph 71 % 0.00 in
07:23 48.9 °F 39.9 °F 29.90 in SSW 2.6 mph 4.6 mph 71 % 0.00 in
07:28 49.0 °F 40.0 °F 29.90 in SW 4.1 mph 5.8 mph 71 % 0.00 in
07:33 49.0 °F 40.0 °F 29.91 in SSW 4.3 mph 12.7 mph 71 % 0.00 in
07:39 49.1 °F 39.7 °F 29.90 in WSW 2.9 mph 9.2 mph 70 % 0.00 in
07:44 49.2 °F 39.8 °F 29.90 in SSW 4.3 mph 8.1 mph 70 % 0.00 in
07:49 49.3 °F 39.9 °F 29.90 in WSW 6.5 mph 11.5 mph 70 % 0.00 in
07:54 49.4 °F 40.0 °F 29.91 in SSW 5.1 mph 7.0 mph 70 % 0.00 in
07:59 49.5 °F 39.7 °F 29.91 in West 4.3 mph 6.9 mph 69 % 0.00 in
08:04 49.6 °F 39.8 °F 29.91 in SSW 3.3 mph 6.9 mph 69 % 0.00 in
08:09 49.7 °F 39.9 °F 29.92 in SSW 3.6 mph 6.0 mph 69 % 0.00 in
08:14 49.8 °F 40.0 °F 29.92 in SSW 3.6 mph 6.9 mph 69 % 0.00 in
08:19 49.9 °F 40.1 °F 29.91 in SW 5.7 mph 8.1 mph 69 % 0.00 in
08:24 50.1 °F 40.3 °F 29.91 in SW 4.8 mph 8.1 mph 69 % 0.00 in
08:30 50.4 °F 40.2 °F 29.91 in SSW 3.6 mph 9.2 mph 68 % 0.00 in
08:35 50.6 °F 40.4 °F 29.92 in SW 4.4 mph 8.0 mph 68 % 0.00 in
08:40 50.9 °F 40.3 °F 29.92 in SW 5.9 mph 11.0 mph 67 % 0.00 in
08:45 51.1 °F 40.1 °F 29.92 in WSW 6.3 mph 10.0 mph 66 % 0.00 in
08:50 51.4 °F 40.4 °F 29.92 in SSW 4.5 mph 6.9 mph 66 % 0.00 in
08:55 51.8 °F 40.4 °F 29.92 in SSW 5.8 mph 9.2 mph 65 % 0.00 in
09:00 52.4 °F 40.6 °F 29.92 in SW 5.6 mph 11.5 mph 64 % 0.00 in
09:05 53.0 °F 40.3 °F 29.92 in WSW 6.0 mph 9.2 mph 62 % 0.00 in
09:10 53.6 °F 40.5 °F 29.92 in SW 4.3 mph 8.1 mph 61 % 0.00 in
09:15 54.1 °F 40.9 °F 29.92 in SW 2.6 mph 5.8 mph 61 % 0.00 in
09:21 54.7 °F 40.2 °F 29.92 in West 4.9 mph 5.8 mph 58 % 0.00 in
09:26 55.2 °F 40.2 °F 29.93 in SW 1.8 mph 6.9 mph 57 % 0.00 in
09:31 55.6 °F 40.6 °F 29.92 in West 3.5 mph 6.0 mph 57 % 0.00 in
09:36 56.0 °F 40.1 °F 29.92 in WSW 2.6 mph 5.8 mph 55 % 0.00 in
09:41 56.4 °F 40.4 °F 29.92 in West 4.9 mph 9.2 mph 55 % 0.00 in
09:46 56.9 °F 40.4 °F 29.93 in West 5.0 mph 8.1 mph 54 % 0.00 in
09:51 57.4 °F 39.9 °F 29.93 in SW 7.5 mph 10.4 mph 52 % 0.00 in
09:56 57.7 °F 39.7 °F 29.93 in West 6.7 mph 10.4 mph 51 % 0.00 in
10:01 58.1 °F 39.5 °F 29.93 in SW 6.2 mph 7.0 mph 50 % 0.00 in
10:06 58.6 °F 40.0 °F 29.93 in WSW 3.1 mph 8.1 mph 50 % 0.00 in
10:12 59.1 °F 39.9 °F 29.93 in WSW 6.4 mph 8.1 mph 49 % 0.00 in
10:17 59.5 °F 39.8 °F 29.93 in WSW 3.8 mph 10.4 mph 48 % 0.00 in
10:22 59.9 °F 40.1 °F 29.92 in WNW 3.5 mph 5.8 mph 48 % 0.00 in
10:27 60.5 °F 39.6 °F 29.92 in SW 5.0 mph 6.9 mph 46 % 0.00 in
10:32 61.0 °F 40.6 °F 29.92 in West 5.7 mph 9.0 mph 47 % 0.00 in
10:37 61.4 °F 39.3 °F 29.93 in WSW 3.4 mph 4.6 mph 44 % 0.00 in
10:42 61.8 °F 39.6 °F 29.93 in West 9.6 mph 13.8 mph 44 % 0.00 in
10:47 62.0 °F 39.2 °F 29.92 in SW 5.8 mph 8.1 mph 43 % 0.00 in
10:52 62.4 °F 39.6 °F 29.93 in WNW 4.1 mph 10.4 mph 43 % 0.00 in
10:57 62.9 °F 40.0 °F 29.92 in WNW 3.1 mph 8.1 mph 43 % 0.00 in
11:03 62.9 °F 39.4 °F 29.92 in WSW 3.1 mph 5.8 mph 42 % 0.00 in
11:08 62.8 °F 39.4 °F 29.92 in NW 1.7 mph 8.1 mph 42 % 0.00 in
11:13 62.7 °F 39.3 °F 29.93 in WNW 3.2 mph 5.8 mph 42 % 0.00 in
11:18 62.9 °F 40.0 °F 29.92 in NW 5.4 mph 8.1 mph 43 % 0.00 in
11:23 63.2 °F 40.3 °F 29.92 in SW 3.9 mph 6.9 mph 43 % 0.00 in
11:28 63.7 °F 39.5 °F 29.91 in WNW 6.4 mph 8.1 mph 41 % 0.00 in
11:33 63.8 °F 39.0 °F 29.91 in WSW 4.0 mph 16.1 mph 40 % 0.00 in
11:38 63.5 °F 38.7 °F 29.91 in NW 6.8 mph 11.5 mph 40 % 0.00 in
11:43 63.1 °F 38.4 °F 29.92 in West 5.8 mph 9.2 mph 40 % 0.00 in
11:48 62.8 °F 38.7 °F 29.92 in WNW 4.9 mph 8.0 mph 41 % 0.00 in
11:54 62.7 °F 38.0 °F 29.92 in SW 5.9 mph 9.2 mph 40 % 0.00 in
11:59 62.7 °F 38.6 °F 29.91 in WSW 4.7 mph 9.2 mph 41 % 0.00 in
12:04 62.8 °F 38.1 °F 29.91 in SW 3.0 mph 5.8 mph 40 % 0.00 in
12:09 63.0 °F 38.3 °F 29.91 in West 6.5 mph 9.2 mph 40 % 0.00 in
12:14 63.1 °F 38.4 °F 29.92 in WNW 6.1 mph 8.1 mph 40 % 0.00 in
12:19 63.6 °F 39.5 °F 29.91 in WSW 2.9 mph 5.8 mph 41 % 0.00 in
12:24 63.8 °F 39.6 °F 29.92 in SW 5.7 mph 8.1 mph 41 % 0.00 in
12:29 63.8 °F 39.0 °F 29.92 in WSW 4.4 mph 10.0 mph 40 % 0.00 in
12:34 63.8 °F 38.4 °F 29.91 in WSW 5.8 mph 10.4 mph 39 % 0.00 in
12:40 63.7 °F 38.3 °F 29.92 in WSW 9.1 mph 10.0 mph 39 % 0.00 in
12:45 63.4 °F 38.0 °F 29.91 in NW 5.3 mph 9.2 mph 39 % 0.00 in
12:50 63.4 °F 37.3 °F 29.91 in WSW 4.3 mph 6.0 mph 38 % 0.00 in
12:55 63.2 °F 37.2 °F 29.92 in WSW 3.5 mph 8.0 mph 38 % 0.00 in
13:00 63.1 °F 37.1 °F 29.91 in West 4.4 mph 8.1 mph 38 % 0.00 in
13:05 63.1 °F 37.1 °F 29.91 in WNW 3.6 mph 6.9 mph 38 % 0.00 in
13:10 63.2 °F 37.2 °F 29.91 in West 6.2 mph 10.4 mph 38 % 0.00 in
13:15 63.3 °F 37.9 °F 29.91 in WSW 3.7 mph 8.1 mph 39 % 0.00 in
13:20 63.7 °F 38.3 °F 29.91 in WSW 5.7 mph 9.2 mph 39 % 0.00 in
13:25 64.3 °F 37.5 °F 29.92 in WSW 5.2 mph 10.4 mph 37 % 0.00 in
13:31 64.7 °F 37.1 °F 29.91 in WSW 5.3 mph 9.0 mph 36 % 0.00 in
13:36 65.1 °F 37.5 °F 29.91 in WNW 4.7 mph 9.2 mph 36 % 0.00 in
13:41 65.5 °F 37.1 °F 29.91 in West 4.2 mph 8.1 mph 35 % 0.00 in
13:46 65.6 °F 37.9 °F 29.90 in West 4.9 mph 8.1 mph 36 % 0.00 in
13:56 66.6 °F 38.1 °F 29.91 in West 5.4 mph 10.0 mph 35 % 0.00 in
14:01 66.7 °F 37.4 °F 29.91 in WSW 6.8 mph 13.8 mph 34 % 0.00 in
14:06 66.6 °F 36.6 °F 29.91 in WSW 3.8 mph 8.0 mph 33 % 0.00 in
14:11 66.5 °F 36.5 °F 29.91 in WNW 4.6 mph 10.4 mph 33 % 0.00 in
14:16 66.4 °F 37.2 °F 29.91 in WSW 6.0 mph 6.9 mph 34 % 0.00 in
14:22 66.5 °F 38.0 °F 29.91 in WSW 6.7 mph 9.2 mph 35 % 0.00 in
14:27 66.5 °F 37.2 °F 29.91 in West 4.9 mph 8.1 mph 34 % 0.00 in
14:32 66.6 °F 37.3 °F 29.91 in SW 6.7 mph 11.5 mph 34 % 0.00 in
14:37 66.6 °F 36.6 °F 29.91 in West 5.3 mph 9.0 mph 33 % 0.00 in
14:42 66.5 °F 37.2 °F 29.91 in SW 6.6 mph 9.2 mph 34 % 0.00 in
14:47 66.6 °F 37.3 °F 29.91 in WNW 5.1 mph 9.0 mph 34 % 0.00 in
14:52 66.6 °F 37.3 °F 29.91 in WSW 6.9 mph 12.0 mph 34 % 0.00 in
14:57 66.7 °F 36.7 °F 29.91 in West 6.6 mph 12.7 mph 33 % 0.00 in
15:02 66.8 °F 36.8 °F 29.91 in SW 7.1 mph 9.0 mph 33 % 0.00 in
15:07 67.0 °F 37.7 °F 29.91 in SW 5.6 mph 10.4 mph 34 % 0.00 in
15:13 67.4 °F 38.0 °F 29.91 in WSW 3.8 mph 8.1 mph 34 % 0.00 in
15:18 67.6 °F 37.5 °F 29.90 in SW 4.9 mph 7.0 mph 33 % 0.00 in
15:23 67.7 °F 36.8 °F 29.90 in SW 5.0 mph 11.5 mph 32 % 0.00 in
15:28 67.7 °F 37.5 °F 29.91 in WSW 4.4 mph 7.0 mph 33 % 0.00 in
15:33 67.8 °F 37.6 °F 29.90 in WSW 4.3 mph 6.9 mph 33 % 0.00 in
15:38 67.9 °F 36.9 °F 29.90 in WSW 5.0 mph 8.1 mph 32 % 0.00 in
15:48 68.3 °F 37.3 °F 29.90 in NW 4.4 mph 6.9 mph 32 % 0.00 in
15:53 68.4 °F 37.4 °F 29.90 in WNW 2.8 mph 10.4 mph 32 % 0.00 in
15:58 68.5 °F 37.5 °F 29.90 in West 5.5 mph 10.4 mph 32 % 0.00 in
16:04 68.5 °F 37.5 °F 29.90 in West 5.0 mph 8.1 mph 32 % 0.00 in
16:09 68.4 °F 36.6 °F 29.90 in West 3.9 mph 3.9 mph 31 % 0.00 in
16:14 68.4 °F 36.6 °F 29.91 in WSW 1.4 mph 5.8 mph 31 % 0.00 in
16:19 68.5 °F 38.2 °F 29.90 in WNW 3.6 mph 4.6 mph 33 % 0.00 in
16:24 68.6 °F 37.5 °F 29.91 in WSW 2.8 mph 5.8 mph 32 % 0.00 in
16:29 68.8 °F 38.5 °F 29.91 in WNW 1.6 mph 4.6 mph 33 % 0.00 in
16:34 68.8 °F 38.5 °F 29.91 in WSW 5.1 mph 10.4 mph 33 % 0.00 in
16:39 68.8 °F 38.5 °F 29.91 in West 3.5 mph 5.8 mph 33 % 0.00 in
16:44 68.8 °F 37.7 °F 29.90 in West 3.1 mph 4.6 mph 32 % 0.00 in
16:49 68.8 °F 38.5 °F 29.90 in WSW 2.7 mph 6.9 mph 33 % 0.00 in
16:55 68.8 °F 39.3 °F 29.90 in SSE 4.2 mph 6.9 mph 34 % 0.00 in
17:00 68.8 °F 37.7 °F 29.91 in WSW 5.8 mph 10.4 mph 32 % 0.00 in
17:05 68.8 °F 38.5 °F 29.90 in SW 4.0 mph 9.0 mph 33 % 0.00 in
17:10 68.8 °F 38.5 °F 29.91 in West 2.3 mph 4.6 mph 33 % 0.00 in
17:15 68.8 °F 38.5 °F 29.91 in SW 6.2 mph 8.1 mph 33 % 0.00 in
17:20 68.8 °F 38.5 °F 29.91 in SW 4.3 mph 5.8 mph 33 % 0.00 in
17:25 68.8 °F 38.5 °F 29.91 in SW 2.4 mph 5.8 mph 33 % 0.00 in
17:30 68.8 °F 37.7 °F 29.91 in WNW 6.4 mph 11.5 mph 32 % 0.00 in
17:35 68.7 °F 37.6 °F 29.91 in WSW 5.1 mph 12.7 mph 32 % 0.00 in
17:40 68.7 °F 37.6 °F 29.91 in WSW 6.0 mph 7.0 mph 32 % 0.00 in
17:46 68.6 °F 37.5 °F 29.91 in WNW 4.7 mph 6.9 mph 32 % 0.00 in
17:51 68.6 °F 36.7 °F 29.92 in West 1.3 mph 9.2 mph 31 % 0.00 in
17:56 68.4 °F 37.4 °F 29.92 in West 2.4 mph 8.1 mph 32 % 0.00 in
18:01 68.3 °F 36.5 °F 29.92 in SW 2.7 mph 8.0 mph 31 % 0.00 in
18:06 68.1 °F 37.1 °F 29.92 in SW 1.9 mph 3.5 mph 32 % 0.00 in
18:11 67.9 °F 36.9 °F 29.92 in West 3.4 mph 3.5 mph 32 % 0.00 in
18:16 67.8 °F 37.6 °F 29.92 in West 1.4 mph 3.5 mph 33 % 0.00 in
18:21 67.6 °F 37.5 °F 29.92 in SW 1.2 mph 2.3 mph 33 % 0.00 in
18:26 67.5 °F 38.1 °F 29.92 in Calm     34 % 0.00 in
18:31 67.2 °F 37.9 °F 29.93 in SW 0.9 mph 2.3 mph 34 % 0.00 in
18:37 66.9 °F 37.6 °F 29.93 in SW 1.2 mph 3.5 mph 34 % 0.00 in
18:42 66.7 °F 37.4 °F 29.93 in SW 0.6 mph 1.2 mph 34 % 0.00 in
18:47 66.5 °F 37.2 °F 29.93 in Calm     34 % 0.00 in
18:49 66.3 °F 37.8 °F 29.93 in Calm   1.2 mph 35 % 0.00 in
18:51 66.3 °F 37.8 °F 29.93 in Calm     35 % 0.00 in
18:52 66.3 °F 38.5 °F 29.93 in Calm     36 % 0.00 in
18:53 66.2 °F 37.7 °F 29.93 in Calm     35 % 0.00 in
18:55 66.2 °F 37.7 °F 29.93 in Calm     35 % 0.00 in
18:56 66.1 °F 37.6 °F 29.93 in Calm     35 % 0.00 in
18:58 65.9 °F 38.9 °F 29.94 in Calm     37 % 0.00 in
19:00 65.8 °F 39.5 °F 29.93 in SW 0.5 mph 2.3 mph 38 % 0.00 in
19:05 65.2 °F 39.6 °F 29.94 in SSE 1.3 mph 4.6 mph 39 % 0.00 in
19:10 64.8 °F 40.5 °F 29.94 in South 1.2 mph 3.5 mph 41 % 0.00 in
19:15 64.3 °F 41.3 °F 29.94 in SSE 3.5 mph 4.6 mph 43 % 0.00 in
19:20 63.9 °F 41.5 °F 29.94 in South 0.8 mph 2.3 mph 44 % 0.00 in
19:25 63.5 °F 41.2 °F 29.95 in South 0.7 mph 3.0 mph 44 % 0.00 in
19:30 63.1 °F 40.8 °F 29.95 in SSE 2.1 mph 3.5 mph 44 % 0.00 in
19:35 62.7 °F 39.9 °F 29.95 in SSW 1.3 mph 4.0 mph 43 % 0.00 in
19:40 62.4 °F 40.2 °F 29.95 in SSW 1.4 mph 2.3 mph 44 % 0.00 in
19:46 62.0 °F 40.4 °F 29.95 in SSW 1.2 mph 3.5 mph 45 % 0.00 in
19:51 61.5 °F 39.9 °F 29.95 in SSE 0.7 mph 3.5 mph 45 % 0.00 in
19:56 61.1 °F 40.1 °F 29.96 in South 0.8 mph 4.6 mph 46 % 0.00 in
20:01 60.7 °F 39.8 °F 29.96 in SSW 0.9 mph 2.3 mph 46 % 0.00 in
20:06 60.2 °F 39.9 °F 29.96 in South 0.8 mph 3.5 mph 47 % 0.00 in
20:11 59.8 °F 40.1 °F 29.97 in South 2.6 mph 4.6 mph 48 % 0.00 in
20:16 59.5 °F 39.8 °F 29.97 in South 1.8 mph 3.5 mph 48 % 0.00 in
20:21 59.3 °F 40.1 °F 29.97 in South 1.8 mph 4.6 mph 49 % 0.00 in
20:26 58.9 °F 39.8 °F 29.97 in South 3.4 mph 4.0 mph 49 % 0.00 in
20:31 58.6 °F 39.5 °F 29.98 in South 1.6 mph 3.5 mph 49 % 0.00 in
20:37 58.4 °F 39.8 °F 29.98 in South 1.7 mph 3.5 mph 50 % 0.00 in
20:42 58.1 °F 39.5 °F 29.98 in South 1.9 mph 3.5 mph 50 % 0.00 in
20:47 57.8 °F 39.8 °F 29.98 in South 2.2 mph 4.6 mph 51 % 0.00 in
20:52 57.5 °F 39.5 °F 29.98 in South 2.3 mph 4.6 mph 51 % 0.00 in
20:57 57.3 °F 39.8 °F 29.98 in South 1.5 mph 3.5 mph 52 % 0.00 in
21:02 57.1 °F 39.6 °F 29.98 in South 2.3 mph 4.6 mph 52 % 0.00 in
21:07 56.9 °F 39.4 °F 29.98 in South 1.1 mph 3.5 mph 52 % 0.00 in
21:12 56.7 °F 39.7 °F 29.98 in South 2.1 mph 3.5 mph 53 % 0.00 in
21:17 56.5 °F 40.0 °F 29.99 in South 1.4 mph 2.3 mph 54 % 0.00 in
21:22 56.3 °F 40.3 °F 29.99 in South 2.3 mph 4.6 mph 55 % 0.00 in
21:28 56.0 °F 40.5 °F 29.99 in South 2.5 mph 4.6 mph 56 % 0.00 in
21:33 55.7 °F 40.7 °F 29.99 in South 3.6 mph 5.8 mph 57 % 0.00 in
21:38 55.5 °F 41.0 °F 29.99 in South 2.9 mph 4.6 mph 58 % 0.00 in
21:48 55.0 °F 41.4 °F 29.99 in South 2.5 mph 3.5 mph 60 % 0.00 in
21:53 54.8 °F 41.6 °F 29.99 in South 3.4 mph 5.8 mph 61 % 0.00 in
21:58 54.6 °F 41.8 °F 29.99 in South 3.1 mph 4.6 mph 62 % 0.00 in
22:03 54.3 °F 42.0 °F 29.99 in South 3.1 mph 4.6 mph 63 % 0.00 in
22:08 54.0 °F 42.1 °F 29.99 in South 1.7 mph 4.0 mph 64 % 0.00 in
22:13 53.8 °F 42.7 °F 30.01 in North 6.9 mph 7.0 mph 66 % 0.00 in
22:19 53.2 °F 41.7 °F 30.01 in NNW 4.4 mph 11.5 mph 65 % 0.00 in
22:29 52.8 °F 41.4 °F 30.02 in NNE 2.5 mph 5.8 mph 65 % 0.00 in
22:34 52.5 °F 41.5 °F 30.02 in NNE 3.2 mph 5.8 mph 66 % 0.00 in
22:39 52.1 °F 41.9 °F 30.02 in ENE 1.7 mph 3.5 mph 68 % 0.00 in
22:44 51.8 °F 41.9 °F 30.02 in ENE 1.9 mph 3.5 mph 69 % 0.00 in
22:49 51.5 °F 42.4 °F 30.02 in ENE 2.0 mph 3.5 mph 71 % 0.00 in
22:54 51.3 °F 42.2 °F 30.02 in Calm   1.2 mph 71 % 0.00 in
22:59 51.1 °F 42.0 °F 30.02 in Calm     71 % 0.00 in
23:04 50.9 °F 41.8 °F 30.03 in ENE 0.5 mph 2.3 mph 71 % 0.00 in
23:10 50.7 °F 41.6 °F 30.02 in ENE 1.3 mph 1.3 mph 71 % 0.00 in
23:15 50.5 °F 41.8 °F 30.02 in ENE 0.8 mph 2.3 mph 72 % 0.00 in
23:20 50.4 °F 41.7 °F 30.03 in Calm     72 % 0.00 in
23:25 50.2 °F 41.5 °F 30.03 in Calm     72 % 0.00 in
23:30 50.0 °F 41.7 °F 30.03 in ENE 0.3 mph 2.0 mph 73 % 0.00 in
23:35 49.9 °F 41.6 °F 30.03 in ENE 0.9 mph 2.3 mph 73 % 0.00 in
23:40 49.7 °F 41.4 °F 30.04 in ENE 1.5 mph 2.3 mph 73 % 0.00 in
23:45 49.5 °F 41.6 °F 30.04 in ENE 1.9 mph 2.3 mph 74 % 0.00 in
23:50 49.3 °F 42.1 °F 30.04 in ENE 0.8 mph 2.3 mph 76 % 0.00 in
23:55 49.1 °F 41.9 °F 30.05 in ENE 2.1 mph 3.5 mph 76 % 0.00 in
Crab Meadow Weather
Compliments of Weather Underground - 3 mb

Script developed by  Jim McMurry - jmcmurry@mwt.net Adapted for the template by  Wim van der Kuil - Leuven-Template.eu

Lightning: At any given moment, there are about 1,800 thunderstorms happening around the world. Approximately 100 lightning bolts strike the earth every second.